Time;durP1;ratioP1;P1;durP2;ratioP2;P2;SDS_P1;SDS_P2;PMS_P1;PMS_P2;Temp;Humidity;BMP_temperature;BMP_pressure;BME280_temperature;BME280_humidity;BME280_pressure;Samples;Min_cycle;Max_cycle;Signal;HPM_P1;HPM_P2
2023/01/31 00:01:29;;;;;;;45.25;7.20;;;2.50;99.90;;;;;;5133874;28;20491;-29
2023/01/31 00:03:58;;;;;;;27.70;3.97;;;2.50;99.90;;;;;;5098921;27;20500;-30
2023/01/31 00:06:27;;;;;;;28.23;4.32;;;2.50;99.90;;;;;;5137759;27;20100;-29
2023/01/31 00:08:54;;;;;;;32.63;4.57;;;2.50;99.90;;;;;;5138443;27;20448;-31
2023/01/31 00:11:22;;;;;;;32.67;5.10;;;2.60;99.90;;;;;;5137863;27;20485;-30
2023/01/31 00:13:48;;;;;;;34.35;4.80;;;2.60;99.90;;;;;;5119471;27;20035;-30
2023/01/31 00:16:15;;;;;;;27.43;3.20;;;2.60;99.90;;;;;;5120398;27;20107;-30
2023/01/31 00:18:42;;;;;;;25.30;3.33;;;2.60;99.90;;;;;;5119921;27;20096;-30
2023/01/31 00:21:18;;;;;;;26.08;4.43;;;2.40;99.90;;;;;;5120203;27;20094;-31
2023/01/31 00:23:45;;;;;;;32.85;5.90;;;2.30;99.90;;;;;;5138557;27;20039;-30
2023/01/31 00:26:20;;;;;;;29.25;3.60;;;2.30;99.90;;;;;;5102602;27;20054;-31
2023/01/31 00:28:47;;;;;;;31.58;4.40;;;2.20;99.90;;;;;;5137630;27;20476;-30
2023/01/31 00:31:16;;;;;;;36.60;4.85;;;2.10;99.90;;;;;;5137787;27;20043;-30
2023/01/31 00:33:44;;;;;;;33.40;6.30;;;2.10;99.90;;;;;;5119263;27;20508;-30
2023/01/31 00:36:14;;;;;;;33.88;3.35;;;2.10;99.90;;;;;;5118969;27;20039;-31
2023/01/31 00:38:41;;;;;;;27.30;4.93;;;2.00;99.90;;;;;;5137384;27;20092;-30
2023/01/31 00:41:07;;;;;;;29.23;3.33;;;2.10;99.90;;;;;;5137364;27;20051;-30
2023/01/31 00:43:33;;;;;;;30.05;5.88;;;2.00;99.90;;;;;;5137273;27;20047;-30
2023/01/31 00:45:59;;;;;;;38.70;3.88;;;2.00;99.90;;;;;;5138079;27;20101;-30
2023/01/31 00:48:25;;;;;;;32.85;6.38;;;2.00;99.90;;;;;;5119355;27;20044;-30
2023/01/31 00:50:51;;;;;;;29.60;3.63;;;2.00;99.90;;;;;;5137732;27;20087;-30
2023/01/31 00:53:22;;;;;;;22.60;3.15;;;1.90;99.90;;;;;;5118929;27;20055;-30
2023/01/31 00:55:49;;;;;;;30.80;3.13;;;1.90;99.90;;;;;;5119288;27;20090;-30
2023/01/31 00:58:15;;;;;;;28.63;3.85;;;1.80;99.90;;;;;;5101526;27;20039;-29
2023/01/31 01:00:41;;;;;;;26.55;2.92;;;1.80;99.90;;;;;;5136959;27;20053;-30
2023/01/31 01:03:06;;;;;;;30.98;3.92;;;1.90;99.90;;;;;;5136844;27;20058;-30
2023/01/31 01:05:32;;;;;;;40.57;6.43;;;2.10;99.90;;;;;;5136849;27;20051;-30
2023/01/31 01:07:58;;;;;;;28.83;4.18;;;2.30;99.90;;;;;;5118933;27;20058;-30
2023/01/31 01:10:23;;;;;;;31.58;4.75;;;2.30;99.90;;;;;;5136701;27;20489;-30
2023/01/31 01:12:49;;;;;;;27.98;3.33;;;2.40;99.90;;;;;;5136704;27;20051;-30
2023/01/31 01:15:15;;;;;;;29.45;3.65;;;2.40;99.90;;;;;;5136936;27;20043;-30
2023/01/31 01:17:41;;;;;;;28.90;3.85;;;2.50;99.90;;;;;;5135664;27;20035;-30
2023/01/31 01:20:07;;;;;;;24.10;2.85;;;2.50;99.90;;;;;;5136582;27;20051;-30
2023/01/31 01:22:33;;;;;;;35.22;5.38;;;2.30;99.90;;;;;;5136566;27;20043;-30
2023/01/31 01:24:59;;;;;;;22.40;2.85;;;2.20;99.90;;;;;;5118347;27;20050;-30
2023/01/31 01:27:26;;;;;;;26.08;2.85;;;2.20;99.90;;;;;;5136406;27;20444;-30
2023/01/31 01:29:52;;;;;;;45.85;4.82;;;2.30;99.90;;;;;;5118196;27;20047;-30
2023/01/31 01:32:18;;;;;;;27.33;3.78;;;2.30;99.90;;;;;;5136193;27;20050;-30
2023/01/31 01:34:44;;;;;;;29.45;3.63;;;2.60;99.90;;;;;;5118696;27;20057;-30
2023/01/31 01:37:10;;;;;;;22.20;4.05;;;2.50;99.90;;;;;;5136108;27;20122;-30
2023/01/31 01:39:39;;;;;;;27.83;4.50;;;2.60;99.90;;;;;;5136183;27;20118;-31
2023/01/31 01:42:07;;;;;;;30.15;4.00;;;2.60;99.90;;;;;;5136109;27;20485;-30
2023/01/31 01:44:41;;;;;;;26.77;3.47;;;2.70;99.90;;;;;;5136704;27;20079;-30
2023/01/31 01:47:14;;;;;;;27.35;3.30;;;3.20;99.90;;;;;;5136852;27;20139;-30
2023/01/31 01:49:41;;;;;;;26.17;4.10;;;3.00;99.90;;;;;;5136820;27;20108;-31
2023/01/31 01:52:10;;;;;;;33.05;4.25;;;3.10;99.90;;;;;;5117810;27;20051;-30
2023/01/31 01:54:53;;;;;;;30.98;3.33;;;3.20;99.90;;;;;;5136444;27;20400;-30
2023/01/31 01:57:24;;;;;;;27.52;3.65;;;3.30;99.90;;;;;;5136124;27;20122;-30
2023/01/31 01:59:59;;;;;;;18.67;3.45;;;3.40;99.90;;;;;;5135882;27;20503;-31
2023/01/31 02:02:25;;;;;;;20.38;2.08;;;3.40;99.90;;;;;;5118015;27;20058;-31
2023/01/31 02:04:51;;;;;;;25.25;4.05;;;3.40;99.90;;;;;;5117498;27;20039;-31
2023/01/31 02:07:17;;;;;;;22.85;3.95;;;3.40;99.90;;;;;;5135962;27;20142;-30
2023/01/31 02:10:04;;;;;;;29.38;3.72;;;3.40;99.90;;;;;;5135582;27;20051;-30
2023/01/31 02:12:32;;;;;;;20.52;2.88;;;3.50;99.90;;;;;;5136212;27;20462;-30
2023/01/31 02:14:58;;;;;;;24.02;3.70;;;3.50;99.90;;;;;;5135493;27;20039;-31
2023/01/31 02:17:25;;;;;;;27.05;3.30;;;3.50;99.90;;;;;;5135415;27;20042;-31
2023/01/31 02:20:22;;;;;;;20.98;3.75;;;3.50;99.90;;;;;;5117498;27;20051;-31
2023/01/31 02:23:06;;;;;;;22.73;2.97;;;3.50;99.90;;;;;;5135408;27;20083;-30
2023/01/31 02:26:14;;;;;;;22.88;2.53;;;3.50;99.90;;;;;;5135939;27;20071;-30
2023/01/31 02:29:01;;;;;;;24.10;2.80;;;3.50;99.90;;;;;;5135282;27;20472;-30
2023/01/31 02:31:49;;;;;;;21.65;2.95;;;3.60;99.90;;;;;;5135235;27;20096;-30
2023/01/31 02:34:22;;;;;;;27.45;3.03;;;3.60;99.90;;;;;;5135538;27;20082;-30
2023/01/31 02:37:03;;;;;;;18.65;2.35;;;3.60;99.90;;;;;;5117044;27;20481;-30
2023/01/31 02:39:51;;;;;;;20.77;3.47;;;3.60;99.90;;;;;;5135744;27;20111;-31
2023/01/31 02:42:45;;;;;;;17.27;2.15;;;3.70;99.90;;;;;;5116952;27;20520;-30
2023/01/31 02:45:13;;;;;;;14.68;2.35;;;3.70;99.90;;;;;;5134969;27;20043;-31
2023/01/31 02:48:07;;;;;;;22.42;3.58;;;3.70;99.90;;;;;;5134917;27;20043;-30
2023/01/31 02:50:56;;;;;;;18.30;2.30;;;3.70;99.90;;;;;;5135791;27;20120;-30
2023/01/31 02:53:22;;;;;;;28.77;3.50;;;3.70;96.50;;;;;;5135206;27;20111;-31
2023/01/31 02:58:41;;;;;;;20.25;2.83;;;3.80;99.90;;;;;;5134876;27;20055;-31
2023/01/31 03:01:12;;;;;;;21.02;2.80;;;3.80;70.60;;;;;;5116914;27;20087;-30
2023/01/31 03:03:38;;;;;;;20.65;2.55;;;3.70;98.10;;;;;;5135405;27;20057;-31
2023/01/31 03:06:30;;;;;;;22.15;2.78;;;3.80;87.30;;;;;;5135001;27;20401;-31
2023/01/31 03:09:01;;;;;;;21.95;2.85;;;3.80;99.90;;;;;;5116143;28;20102;-30
2023/01/31 03:11:39;;;;;;;25.63;3.13;;;3.90;75.80;;;;;;5117428;28;20051;-30
2023/01/31 03:14:26;;;;;;;14.43;2.28;;;4.10;78.80;;;;;;5134675;28;20050;-30
2023/01/31 03:20:07;;;;;;;18.70;2.33;;;4.20;4.80;;;;;;5135123;28;20073;-31
2023/01/31 03:22:44;;;;;;;17.95;2.65;;;4.20;25.60;;;;;;5134597;28;20047;-30
2023/01/31 03:25:13;;;;;;;17.27;2.92;;;4.30;40.80;;;;;;5135421;28;20067;-30
2023/01/31 03:27:44;;;;;;;21.95;3.63;;;4.30;1.00;;;;;;5134503;28;20092;-30
2023/01/31 03:30:17;;;;;;;25.55;3.70;;;4.30;1.00;;;;;;5134506;28;20043;-31
2023/01/31 03:32:54;;;;;;;22.10;2.47;;;4.40;1.00;;;;;;5134724;27;20047;-30
2023/01/31 03:35:24;;;;;;;22.67;3.30;;;4.40;19.70;;;;;;5135639;28;20039;-30
2023/01/31 03:37:59;;;;;;;21.67;2.70;;;4.40;14.40;;;;;;5134337;28;20039;-31
2023/01/31 03:40:40;;;;;;;24.88;3.70;;;4.50;27.00;;;;;;5118982;27;20078;-31
2023/01/31 03:43:13;;;;;;;15.88;3.42;;;4.60;42.70;;;;;;5138526;27;20047;-30
2023/01/31 03:45:59;;;;;;;18.75;3.08;;;4.70;27.20;;;;;;5138517;27;20519;-31
2023/01/31 03:48:32;;;;;;;23.35;4.15;;;4.70;47.00;;;;;;5139310;27;20101;-30
2023/01/31 03:51:02;;;;;;;18.40;3.58;;;4.70;35.20;;;;;;5120344;27;20047;-30
2023/01/31 03:53:36;;;;;;;36.03;4.30;;;4.80;60.10;;;;;;5138236;27;20047;-30
2023/01/31 03:56:21;;;;;;;18.95;2.95;;;4.80;55.10;;;;;;5138193;27;20473;-31
2023/01/31 03:58:52;;;;;;;18.02;3.17;;;4.80;90.10;;;;;;5138205;27;20134;-31
2023/01/31 04:01:21;;;;;;;24.60;3.75;;;4.90;99.90;;;;;;5120035;27;20046;-31
2023/01/31 04:03:58;;;;;;;29.38;4.28;;;4.90;99.90;;;;;;5119991;27;20047;-30
2023/01/31 04:06:25;;;;;;;21.40;3.78;;;4.90;99.90;;;;;;5138048;27;20044;-31
2023/01/31 04:08:50;;;;;;;25.10;3.67;;;5.00;99.90;;;;;;5138899;27;20138;-31
2023/01/31 04:11:20;;;;;;;18.10;4.50;;;5.00;99.90;;;;;;5119598;27;20126;-30
2023/01/31 04:13:46;;;;;;;39.50;6.35;;;5.00;99.90;;;;;;5119770;27;20477;-31
2023/01/31 04:16:12;;;;;;;25.15;4.18;;;5.00;99.90;;;;;;5137750;27;20472;-31
2023/01/31 04:18:37;;;;;;;25.13;4.85;;;5.10;99.90;;;;;;5120211;27;20049;-31
2023/01/31 04:21:04;;;;;;;31.45;4.75;;;5.00;99.90;;;;;;5137743;27;20046;-31
2023/01/31 04:23:29;;;;;;;14.43;3.30;;;5.00;99.90;;;;;;5137692;27;20051;-32
2023/01/31 04:25:55;;;;;;;30.10;5.18;;;5.00;99.90;;;;;;5119298;27;20143;-30
2023/01/31 04:28:21;;;;;;;24.77;6.15;;;5.00;99.90;;;;;;5119719;27;20067;-30
2023/01/31 04:30:52;;;;;;;21.58;2.75;;;5.00;99.90;;;;;;5137840;27;20066;-31
2023/01/31 04:33:18;;;;;;;26.80;5.03;;;5.10;99.90;;;;;;5137720;27;20047;-30
2023/01/31 04:35:44;;;;;;;34.00;4.68;;;4.90;99.90;;;;;;5138016;27;20050;-31
2023/01/31 04:38:09;;;;;;;18.95;3.80;;;5.00;99.90;;;;;;5137298;27;20039;-31
2023/01/31 04:40:35;;;;;;;27.20;3.78;;;5.10;99.90;;;;;;5137333;27;20088;-31
2023/01/31 04:43:01;;;;;;;32.30;5.53;;;5.10;99.90;;;;;;5102352;27;20384;-31
2023/01/31 04:45:27;;;;;;;27.52;4.78;;;5.10;99.90;;;;;;5136928;27;20047;-31
2023/01/31 04:47:52;;;;;;;28.85;4.78;;;5.10;99.90;;;;;;5137219;27;20085;-31
2023/01/31 04:50:18;;;;;;;24.13;4.13;;;5.10;99.90;;;;;;5137546;27;20130;-30
2023/01/31 04:52:46;;;;;;;41.40;5.82;;;5.10;99.90;;;;;;5136096;27;20043;-31
2023/01/31 04:55:11;;;;;;;26.23;6.60;;;5.10;99.90;;;;;;5137113;27;20504;-31
2023/01/31 04:57:38;;;;;;;25.98;4.72;;;5.20;99.90;;;;;;5118818;27;20043;-31
2023/01/31 05:00:04;;;;;;;27.20;4.72;;;5.10;99.90;;;;;;5136931;27;20096;-31
2023/01/31 05:02:30;;;;;;;30.23;4.13;;;5.20;99.90;;;;;;5137462;27;20043;-31
2023/01/31 05:04:56;;;;;;;29.63;4.35;;;5.20;99.90;;;;;;5136923;27;20039;-30
2023/01/31 05:07:22;;;;;;;27.95;3.85;;;5.20;99.90;;;;;;5136752;27;20062;-31
2023/01/31 05:09:48;;;;;;;31.27;7.68;;;5.20;99.90;;;;;;5136784;27;20458;-30
2023/01/31 05:12:13;;;;;;;24.73;4.63;;;5.20;99.90;;;;;;5137018;27;20056;-31
2023/01/31 05:14:39;;;;;;;29.70;4.82;;;5.20;99.90;;;;;;5101699;27;20053;-30
2023/01/31 05:17:05;;;;;;;34.85;5.28;;;5.30;99.90;;;;;;5136523;27;20171;-31
2023/01/31 05:19:31;;;;;;;31.05;6.32;;;5.30;99.90;;;;;;5136615;27;20047;-31
2023/01/31 05:21:57;;;;;;;28.35;5.32;;;5.30;99.90;;;;;;5118175;27;20047;-31
2023/01/31 05:24:32;;;;;;;24.48;5.15;;;5.30;99.90;;;;;;5118678;27;20047;-31
2023/01/31 05:27:00;;;;;;;27.20;4.75;;;5.30;99.90;;;;;;5137331;27;20377;-31
2023/01/31 05:29:31;;;;;;;26.55;6.03;;;5.20;99.90;;;;;;5118144;27;20485;-31
2023/01/31 05:31:59;;;;;;;29.05;4.65;;;5.30;99.90;;;;;;5117869;27;20051;-31
2023/01/31 05:34:27;;;;;;;32.17;5.15;;;5.30;99.90;;;;;;5136317;27;20085;-31
2023/01/31 05:36:53;;;;;;;30.17;6.22;;;5.30;99.90;;;;;;5136196;27;20043;-31
2023/01/31 05:39:19;;;;;;;29.75;4.45;;;5.30;99.90;;;;;;5101101;27;20047;-30
2023/01/31 05:41:45;;;;;;;34.03;4.78;;;5.30;99.90;;;;;;5136990;27;20108;-30
2023/01/31 05:44:11;;;;;;;33.13;5.28;;;5.30;99.90;;;;;;5136656;27;20039;-31
2023/01/31 05:46:37;;;;;;;25.23;4.28;;;5.30;99.90;;;;;;5136328;27;20035;-30
2023/01/31 05:49:04;;;;;;;29.33;6.00;;;5.30;99.90;;;;;;5117872;27;20503;-31
2023/01/31 05:51:29;;;;;;;23.75;4.38;;;5.30;99.90;;;;;;5117587;27;20047;-30
2023/01/31 05:53:55;;;;;;;24.98;5.28;;;5.30;99.90;;;;;;5136301;27;20111;-30
2023/01/31 05:56:22;;;;;;;32.80;4.47;;;5.30;99.90;;;;;;5117519;27;20035;-30
2023/01/31 05:58:49;;;;;;;26.40;4.65;;;5.30;99.90;;;;;;5135687;27;20043;-31
2023/01/31 06:01:22;;;;;;;35.50;4.80;;;5.30;99.90;;;;;;5136213;27;20043;-31
2023/01/31 06:03:48;;;;;;;;;;;5.30;99.90;;;;;;5117443;27;20481;-30
2023/01/31 06:06:14;;;;;;;31.38;5.43;;;5.30;99.90;;;;;;5135654;27;19919;-30
2023/01/31 06:08:41;;;;;;;29.05;4.65;;;5.20;99.90;;;;;;5114234;28;20050;-31
2023/01/31 06:11:09;;;;;;;39.53;7.65;;;5.30;99.90;;;;;;5115594;28;20051;-31
2023/01/31 06:13:36;;;;;;;35.28;6.05;;;5.40;99.90;;;;;;5113885;28;20131;-30
2023/01/31 06:16:02;;;;;;;30.33;6.07;;;5.30;99.90;;;;;;5114911;28;20120;-31
2023/01/31 06:18:28;;;;;;;38.15;6.63;;;5.30;99.90;;;;;;5114960;28;20489;-31
2023/01/31 06:20:54;;;;;;;30.95;5.38;;;5.30;99.90;;;;;;5114130;28;20056;-31
2023/01/31 06:23:20;;;;;;;30.00;5.82;;;5.30;99.90;;;;;;5114503;28;20043;-31
2023/01/31 06:25:53;;;;;;;32.58;6.47;;;5.20;99.90;;;;;;5114365;28;20130;-30
2023/01/31 06:28:18;;;;;;;30.90;4.95;;;5.30;99.90;;;;;;5114122;28;20101;-31
2023/01/31 06:30:45;;;;;;;31.40;6.22;;;5.30;99.90;;;;;;5114705;28;20044;-31
2023/01/31 06:33:11;;;;;;;33.42;6.60;;;5.20;99.90;;;;;;5114571;28;20052;-31
2023/01/31 06:35:38;;;;;;;22.27;4.78;;;5.30;99.90;;;;;;5115472;28;20560;-31
2023/01/31 06:38:04;;;;;;;39.10;5.78;;;5.30;99.90;;;;;;5113570;28;20176;-30
2023/01/31 06:40:30;;;;;;;30.98;5.88;;;5.30;99.90;;;;;;5114408;28;20187;-30
2023/01/31 06:42:57;;;;;;;37.15;5.93;;;5.30;99.90;;;;;;5114987;28;20051;-30
2023/01/31 06:45:23;;;;;;;33.13;5.15;;;5.30;99.90;;;;;;5113306;28;20134;-31
2023/01/31 06:47:49;;;;;;;27.23;4.75;;;5.30;99.90;;;;;;5114507;28;20097;-30
2023/01/31 06:50:15;;;;;;;25.17;4.32;;;5.40;99.90;;;;;;5114921;28;20120;-30
2023/01/31 06:52:41;;;;;;;38.70;6.03;;;5.30;99.90;;;;;;5114340;28;20039;-31
2023/01/31 06:55:07;;;;;;;28.58;5.70;;;5.40;99.90;;;;;;5113673;28;20055;-31
2023/01/31 06:57:33;;;;;;;39.70;6.93;;;5.40;99.90;;;;;;5114259;28;20040;-30
2023/01/31 06:59:59;;;;;;;33.05;5.32;;;5.50;99.90;;;;;;5114193;28;20058;-31
2023/01/31 07:02:24;;;;;;;30.65;6.45;;;5.50;99.90;;;;;;5113213;28;20126;-30
2023/01/31 07:04:50;;;;;;;33.13;5.13;;;5.50;99.90;;;;;;5114193;28;20055;-31
2023/01/31 07:07:16;;;;;;;27.88;4.18;;;5.60;99.90;;;;;;5112923;28;20095;-30
2023/01/31 07:09:42;;;;;;;37.65;7.03;;;5.60;99.90;;;;;;5114177;28;20370;-31
2023/01/31 07:12:08;;;;;;;27.58;4.85;;;5.70;86.90;;;;;;5112904;28;20043;-31
2023/01/31 07:14:33;;;;;;;36.05;5.47;;;5.70;37.20;;;;;;5112476;28;20127;-31
2023/01/31 07:16:59;;;;;;;27.17;4.93;;;5.70;24.30;;;;;;5113967;28;20462;-31
2023/01/31 07:19:25;;;;;;;30.52;5.10;;;5.80;1.00;;;;;;5114862;28;20043;-31
2023/01/31 07:21:51;;;;;;;28.45;5.35;;;5.80;1.00;;;;;;5114578;28;20092;-31
2023/01/31 07:24:16;;;;;;;24.63;5.00;;;5.80;1.00;;;;;;5112855;28;20063;-31
2023/01/31 07:26:42;;;;;;;25.27;4.65;;;5.80;1.00;;;;;;5112772;28;20039;-31
2023/01/31 07:29:08;;;;;;;25.90;4.72;;;5.80;1.00;;;;;;5096124;28;20044;-31
2023/01/31 07:31:34;;;;;;;21.70;4.85;;;5.80;1.00;;;;;;5112849;28;20072;-32
2023/01/31 07:34:00;;;;;;;23.52;4.57;;;5.80;1.00;;;;;;5079953;28;20579;-31
2023/01/31 07:36:26;;;;;;;18.40;5.18;;;5.90;1.00;;;;;;5096312;28;20079;-31
2023/01/31 07:38:54;;;;;;;22.80;4.25;;;5.90;1.00;;;;;;5114235;28;20078;-32
2023/01/31 07:41:20;;;;;;;19.75;4.28;;;5.90;1.00;;;;;;5113865;28;20077;-31
2023/01/31 07:43:46;;;;;;;24.73;3.95;;;5.80;1.00;;;;;;5113587;28;20043;-31
2023/01/31 07:46:11;;;;;;;37.90;4.70;;;5.80;23.00;;;;;;5114354;28;20074;-30
2023/01/31 07:48:37;;;;;;;22.02;4.40;;;5.80;54.30;;;;;;5114600;28;20052;-31
2023/01/31 07:51:04;;;;;;;27.33;4.38;;;5.80;93.40;;;;;;5095794;28;20542;-30
2023/01/31 07:53:32;;;;;;;24.17;4.00;;;5.90;99.90;;;;;;5112654;28;20100;-31
2023/01/31 07:56:14;;;;;;;24.70;4.80;;;5.90;99.90;;;;;;5112487;28;20048;-30
2023/01/31 07:58:41;;;;;;;23.55;4.13;;;5.90;96.50;;;;;;5113772;28;20485;-31
2023/01/31 08:04:05;;;;;;;18.92;4.38;;;5.90;99.90;;;;;;5112417;28;20059;-30
2023/01/31 08:06:31;;;;;;;26.48;4.65;;;6.00;96.20;;;;;;5113637;28;20065;-31
2023/01/31 08:08:57;;;;;;;25.45;4.82;;;6.00;99.90;;;;;;5133686;28;20432;-30
2023/01/31 08:11:23;;;;;;;25.63;5.00;;;6.00;99.90;;;;;;5134173;28;20090;-32
2023/01/31 08:13:49;;;;;;;22.73;4.18;;;5.90;99.90;;;;;;5134054;28;20043;-31
2023/01/31 08:16:15;;;;;;;17.52;3.75;;;5.90;99.90;;;;;;5098658;28;20131;-31
2023/01/31 08:18:41;;;;;;;20.95;4.57;;;5.90;99.90;;;;;;5134027;28;20039;-32
2023/01/31 08:21:09;;;;;;;22.88;4.07;;;5.90;99.90;;;;;;5134015;28;20049;-31
2023/01/31 08:23:37;;;;;;;24.38;5.07;;;5.90;99.90;;;;;;5134569;28;20043;-31
2023/01/31 08:26:09;;;;;;;24.75;4.93;;;6.00;99.90;;;;;;5135501;27;20047;-31
2023/01/31 08:28:35;;;;;;;19.50;5.47;;;6.00;99.90;;;;;;5137674;27;20046;-31
2023/01/31 08:31:01;;;;;;;20.00;4.53;;;6.00;99.90;;;;;;5137582;27;20131;-31
2023/01/31 08:33:27;;;;;;;21.98;5.22;;;6.00;99.90;;;;;;5137432;27;20086;-31
2023/01/31 08:35:52;;;;;;;30.77;5.63;;;6.10;99.90;;;;;;5119644;27;20043;-31
2023/01/31 08:38:18;;;;;;;19.63;4.90;;;6.20;99.90;;;;;;5137322;27;20043;-32
2023/01/31 08:40:44;;;;;;;19.75;4.00;;;6.30;99.90;;;;;;5137370;27;20043;-31
2023/01/31 08:43:10;;;;;;;24.02;5.28;;;6.30;99.90;;;;;;5118941;27;20126;-31
2023/01/31 08:45:35;;;;;;;20.08;3.92;;;6.40;99.90;;;;;;5137277;27;20054;-32
2023/01/31 08:48:01;;;;;;;28.95;5.18;;;6.40;99.90;;;;;;5137268;27;20046;-31
2023/01/31 08:50:30;;;;;;;28.05;6.50;;;6.40;99.90;;;;;;5137134;27;20061;-31
2023/01/31 08:53:02;;;;;;;28.20;5.32;;;6.40;99.90;;;;;;5119295;27;20051;-31
2023/01/31 08:55:30;;;;;;;24.58;5.65;;;6.40;99.90;;;;;;5137974;27;20051;-30
2023/01/31 08:57:56;;;;;;;30.65;4.80;;;6.30;99.90;;;;;;5118633;27;20070;-30
2023/01/31 09:00:22;;;;;;;28.63;5.85;;;6.30;99.90;;;;;;5137054;27;20050;-30
2023/01/31 09:02:55;;;;;;;22.95;5.50;;;6.30;99.90;;;;;;5136963;27;20488;-31
2023/01/31 09:05:22;;;;;;;29.83;6.38;;;6.20;99.90;;;;;;5137291;27;20498;-31
2023/01/31 09:07:47;;;;;;;23.65;4.57;;;6.30;99.90;;;;;;5136551;27;20066;-31
2023/01/31 09:10:13;;;;;;;36.08;6.47;;;6.30;99.90;;;;;;5136803;27;20043;-31
2023/01/31 09:12:39;;;;;;;34.92;5.35;;;6.30;99.90;;;;;;5118469;27;20159;-31
2023/01/31 09:15:05;;;;;;;30.75;5.28;;;6.40;99.90;;;;;;5118095;27;20047;-31
2023/01/31 09:17:30;;;;;;;20.67;3.67;;;6.30;99.90;;;;;;5118911;27;20050;-30
2023/01/31 09:19:56;;;;;;;26.80;4.97;;;6.40;99.90;;;;;;5118475;27;20035;-30
2023/01/31 09:22:22;;;;;;;32.72;5.68;;;6.40;99.90;;;;;;5136598;27;20099;-31
2023/01/31 09:24:48;;;;;;;18.10;3.95;;;6.40;99.90;;;;;;5136586;27;20083;-31
2023/01/31 09:27:14;;;;;;;31.42;5.22;;;6.40;99.90;;;;;;5137306;27;20088;-32
2023/01/31 09:29:40;;;;;;;24.85;5.63;;;6.40;99.90;;;;;;5136470;27;20054;-29
2023/01/31 09:32:06;;;;;;;28.95;5.50;;;6.40;99.90;;;;;;5136327;27;20153;-30
2023/01/31 09:34:32;;;;;;;21.83;6.03;;;6.30;99.90;;;;;;5117933;27;20136;-31
2023/01/31 09:36:58;;;;;;;33.55;6.05;;;6.30;99.90;;;;;;5135693;27;20043;-30
2023/01/31 09:39:24;;;;;;;31.90;5.55;;;6.30;99.90;;;;;;5118111;27;20172;-30
2023/01/31 09:41:54;;;;;;;28.58;4.60;;;6.30;99.90;;;;;;5136177;27;20054;-30
2023/01/31 09:44:33;;;;;;;25.50;6.30;;;6.30;99.90;;;;;;5136202;27;20043;-30
2023/01/31 09:47:07;;;;;;;29.10;5.15;;;6.20;99.90;;;;;;5136703;27;20035;-30
2023/01/31 09:49:52;;;;;;;25.00;5.00;;;6.30;99.90;;;;;;5136385;27;20039;-30
2023/01/31 09:52:19;;;;;;;25.70;4.85;;;6.30;99.90;;;;;;5117735;27;20051;-31
2023/01/31 09:54:45;;;;;;;32.75;5.97;;;6.30;99.90;;;;;;5135888;27;20051;-30
2023/01/31 09:57:23;;;;;;;31.60;6.85;;;6.40;99.90;;;;;;5135771;27;20095;-31
2023/01/31 09:59:51;;;;;;;29.10;4.80;;;6.40;99.90;;;;;;5136716;27;20043;-31
2023/01/31 10:02:46;;;;;;;35.47;6.47;;;6.50;99.90;;;;;;5117706;27;20047;-30
2023/01/31 10:05:41;;;;;;;35.85;6.15;;;6.40;99.90;;;;;;5136637;27;20053;-31
2023/01/31 10:08:07;;;;;;;34.83;7.20;;;6.40;99.90;;;;;;5135549;27;20051;-30
2023/01/31 10:10:37;;;;;;;36.00;6.88;;;6.50;99.90;;;;;;5136176;27;20043;-31
2023/01/31 10:13:23;;;;;;;32.47;6.10;;;6.40;99.90;;;;;;5135622;27;20079;-32
2023/01/31 10:15:58;;;;;;;33.83;5.45;;;6.40;99.90;;;;;;5136183;27;20051;-31
2023/01/31 10:18:31;;;;;;;41.40;6.07;;;6.40;99.90;;;;;;5136045;27;20043;-30
2023/01/31 10:21:07;;;;;;;28.35;6.72;;;6.40;99.90;;;;;;5135497;27;20046;-31
2023/01/31 10:23:40;;;;;;;30.35;5.85;;;6.30;99.90;;;;;;5136318;27;20053;-31
2023/01/31 10:26:28;;;;;;;32.63;6.60;;;6.40;99.90;;;;;;5117075;27;20107;-31
2023/01/31 10:29:05;;;;;;;39.13;7.90;;;6.40;99.90;;;;;;5134595;27;20059;-30
2023/01/31 10:31:45;;;;;;;30.50;6.20;;;6.60;99.90;;;;;;5136113;27;20051;-31
2023/01/31 10:34:16;;;;;;;40.17;7.60;;;6.30;99.90;;;;;;5117412;27;20050;-30
2023/01/31 10:36:50;;;;;;;35.00;6.90;;;6.20;99.90;;;;;;5135116;27;20091;-31
2023/01/31 10:39:26;;;;;;;34.05;8.45;;;6.20;99.90;;;;;;5135512;27;20046;-31
2023/01/31 10:41:57;;;;;;;37.67;7.35;;;6.10;99.90;;;;;;5135666;27;20047;-30
2023/01/31 10:44:31;;;;;;;41.60;6.75;;;6.50;99.90;;;;;;5135090;27;20056;-30
2023/01/31 10:46:59;;;;;;;37.70;7.20;;;6.20;99.90;;;;;;5135064;27;20124;-31
2023/01/31 10:49:26;;;;;;;34.22;5.88;;;6.20;99.90;;;;;;5133974;27;20051;-31
2023/01/31 10:52:22;;;;;;;38.95;8.40;;;6.00;99.90;;;;;;5116608;27;20499;-31
2023/01/31 10:55:08;;;;;;;35.63;6.95;;;6.80;99.90;;;;;;5134938;27;20110;-31
2023/01/31 10:57:34;;;;;;;41.70;8.05;;;6.90;99.90;;;;;;5117320;27;20046;-30
2023/01/31 11:00:00;;;;;;;39.25;7.75;;;7.00;99.90;;;;;;5134773;27;20046;-32
2023/01/31 11:02:28;;;;;;;36.03;7.43;;;6.40;99.90;;;;;;5134791;27;20047;-31
2023/01/31 11:04:58;;;;;;;38.50;7.80;;;6.10;99.90;;;;;;5116660;28;20439;-32
2023/01/31 11:07:29;;;;;;;39.38;8.23;;;6.20;99.90;;;;;;5134600;27;20094;-32
2023/01/31 11:09:55;;;;;;;38.75;6.90;;;6.10;99.90;;;;;;5135034;27;20043;-31
2023/01/31 11:12:42;;;;;;;47.92;8.07;;;7.00;99.90;;;;;;5134738;28;20134;-31
2023/01/31 11:15:16;;;;;;;33.88;7.90;;;5.90;99.90;;;;;;5134679;28;20054;-31
2023/01/31 11:17:43;;;;;;;37.25;6.28;;;6.80;99.90;;;;;;5134890;28;20039;-32
2023/01/31 11:20:23;;;;;;;39.60;6.72;;;7.00;99.90;;;;;;5134894;28;20121;-33
2023/01/31 11:22:50;;;;;;;33.13;5.75;;;6.80;99.90;;;;;;5134908;28;20046;-32
2023/01/31 11:25:22;;;;;;;37.95;7.63;;;6.90;99.90;;;;;;5116145;28;20043;-33
2023/01/31 11:27:50;;;;;;;38.58;6.80;;;7.10;99.90;;;;;;5134524;28;20047;-32
2023/01/31 11:30:30;;;;;;;39.95;7.93;;;6.20;99.90;;;;;;5134486;28;20572;-32
2023/01/31 11:32:56;;;;;;;38.85;6.75;;;6.10;99.90;;;;;;5134443;27;20081;-32
2023/01/31 11:35:25;;;;;;;40.95;6.85;;;6.00;99.90;;;;;;5134506;28;20086;-32
2023/01/31 11:37:57;;;;;;;38.97;7.72;;;6.10;99.90;;;;;;5115784;28;20035;-34
2023/01/31 11:40:35;;;;;;;35.05;6.68;;;7.10;99.90;;;;;;5116271;28;20499;-33
2023/01/31 11:43:20;;;;;;;38.15;5.65;;;6.40;99.90;;;;;;5116945;28;20054;-33
2023/01/31 11:45:56;;;;;;;34.92;6.75;;;7.20;99.90;;;;;;5134182;28;20523;-32
2023/01/31 11:48:25;;;;;;;35.70;6.28;;;7.30;99.90;;;;;;5116108;28;20388;-31
2023/01/31 11:50:57;;;;;;;36.00;6.00;;;7.30;99.90;;;;;;5116218;28;20074;-33
2023/01/31 11:53:27;;;;;;;38.58;5.45;;;7.20;99.90;;;;;;5134294;28;20061;-32
2023/01/31 11:55:56;;;;;;;34.00;5.78;;;6.60;99.90;;;;;;5134575;28;20443;-32
2023/01/31 11:58:30;;;;;;;28.88;5.65;;;6.20;99.90;;;;;;5134139;28;20043;-32
2023/01/31 12:00:59;;;;;;;35.80;6.40;;;6.80;99.90;;;;;;5135727;27;20477;-33
2023/01/31 12:03:26;;;;;;;28.92;4.95;;;7.60;99.90;;;;;;5138424;27;20121;-32
2023/01/31 12:06:05;;;;;;;30.85;5.32;;;6.80;99.90;;;;;;5138050;27;20131;-32
2023/01/31 12:08:34;;;;;;;33.35;4.97;;;7.40;99.90;;;;;;5137597;27;20073;-32
2023/01/31 12:11:22;;;;;;;26.67;5.20;;;7.00;99.90;;;;;;5137979;27;20130;-33
2023/01/31 12:13:53;;;;;;;32.78;6.47;;;7.10;99.90;;;;;;5136984;27;20497;-32
2023/01/31 12:16:24;;;;;;;29.08;6.10;;;7.60;99.90;;;;;;5138727;27;20392;-33
2023/01/31 12:19:13;;;;;;;33.35;5.15;;;7.10;99.90;;;;;;5120628;27;20047;-32
2023/01/31 12:21:51;;;;;;;17.58;4.60;;;7.20;99.90;;;;;;5138634;27;20054;-32
2023/01/31 12:24:25;;;;;;;32.15;4.70;;;7.50;99.90;;;;;;5137706;27;20099;-32
2023/01/31 12:27:29;;;;;;;26.23;5.03;;;7.60;99.90;;;;;;5137805;27;20039;-33
2023/01/31 12:30:12;;;;;;;22.95;5.03;;;7.60;99.90;;;;;;5137965;27;20043;-32
2023/01/31 12:33:24;;;;;;;25.88;5.35;;;7.60;99.90;;;;;;5138083;27;20053;-32
2023/01/31 12:36:17;;;;;;;32.15;4.93;;;7.80;99.90;;;;;;5137557;27;20102;-32
2023/01/31 12:39:18;;;;;;;22.45;4.93;;;7.90;99.90;;;;;;5119032;27;20058;-31
2023/01/31 12:42:07;;;;;;;27.00;6.20;;;7.80;99.90;;;;;;5135482;27;20126;-32
2023/01/31 12:44:33;;;;;;;23.77;5.15;;;7.70;99.90;;;;;;5138202;27;20058;-31
2023/01/31 12:47:23;;;;;;;27.88;5.10;;;7.70;99.90;;;;;;5137805;27;20039;-31
2023/01/31 12:50:07;;;;;;;28.90;5.35;;;7.70;99.90;;;;;;5102866;27;20054;-30
2023/01/31 12:52:48;;;;;;;27.23;5.03;;;7.80;99.90;;;;;;5137766;27;20078;-33
2023/01/31 12:55:32;;;;;;;27.70;5.88;;;8.00;99.90;;;;;;5137170;27;20039;-31
2023/01/31 12:58:30;;;;;;;21.95;5.60;;;8.10;99.90;;;;;;5137064;27;20043;-31
2023/01/31 13:01:11;;;;;;;25.98;5.47;;;8.20;99.90;;;;;;5137613;27;20063;-31
2023/01/31 13:04:09;;;;;;;25.52;5.63;;;8.20;99.90;;;;;;5137261;27;20117;-31
2023/01/31 13:06:42;;;;;;;22.95;4.55;;;8.20;99.90;;;;;;5136824;27;20039;-31
2023/01/31 13:09:17;;;;;;;26.85;5.40;;;8.20;99.90;;;;;;5136719;27;20073;-31
2023/01/31 13:11:50;;;;;;;23.60;5.75;;;8.20;99.90;;;;;;5136221;27;20473;-31
2023/01/31 13:14:29;;;;;;;22.42;4.93;;;8.20;99.90;;;;;;5136457;27;20087;-31
2023/01/31 13:16:59;;;;;;;29.17;6.35;;;8.20;99.90;;;;;;5118746;27;20039;-30